sensor_id;sensor_type;location;lat;lon;timestamp;P1;durP1;ratioP1;P2;durP2;ratioP2
41436;SDS011;27178;49.460;10.850;2023-10-09T00:00:16;6.57;;;5.20;;
41436;SDS011;27178;49.460;10.850;2023-10-09T00:03:03;7.18;;;5.32;;
41436;SDS011;27178;49.460;10.850;2023-10-09T00:05:33;8.23;;;5.93;;
41436;SDS011;27178;49.460;10.850;2023-10-09T00:08:13;7.93;;;5.88;;
41436;SDS011;27178;49.460;10.850;2023-10-09T00:10:48;6.75;;;5.55;;
41436;SDS011;27178;49.460;10.850;2023-10-09T00:13:20;5.80;;;5.20;;
41436;SDS011;27178;49.460;10.850;2023-10-09T00:15:56;5.88;;;5.13;;
41436;SDS011;27178;49.460;10.850;2023-10-09T00:18:27;7.47;;;5.55;;
41436;SDS011;27178;49.460;10.850;2023-10-09T00:20:56;8.30;;;5.35;;
41436;SDS011;27178;49.460;10.850;2023-10-09T00:23:37;7.13;;;5.35;;
41436;SDS011;27178;49.460;10.850;2023-10-09T00:26:05;6.90;;;4.78;;
41436;SDS011;27178;49.460;10.850;2023-10-09T00:28:38;7.68;;;5.18;;
41436;SDS011;27178;49.460;10.850;2023-10-09T00:31:11;6.25;;;4.97;;
41436;SDS011;27178;49.460;10.850;2023-10-09T00:33:43;6.40;;;4.85;;
41436;SDS011;27178;49.460;10.850;2023-10-09T00:36:12;7.38;;;5.25;;
41436;SDS011;27178;49.460;10.850;2023-10-09T00:38:44;5.13;;;4.63;;
41436;SDS011;27178;49.460;10.850;2023-10-09T00:41:16;6.43;;;4.55;;
41436;SDS011;27178;49.460;10.850;2023-10-09T00:43:48;6.05;;;4.95;;
41436;SDS011;27178;49.460;10.850;2023-10-09T00:46:20;6.32;;;4.85;;
41436;SDS011;27178;49.460;10.850;2023-10-09T00:48:54;5.65;;;4.85;;
41436;SDS011;27178;49.460;10.850;2023-10-09T00:51:28;5.32;;;4.82;;
41436;SDS011;27178;49.460;10.850;2023-10-09T00:54:03;7.80;;;5.53;;
41436;SDS011;27178;49.460;10.850;2023-10-09T00:56:41;6.38;;;4.38;;
41436;SDS011;27178;49.460;10.850;2023-10-09T00:59:17;5.78;;;5.18;;
41436;SDS011;27178;49.460;10.850;2023-10-09T01:01:50;5.55;;;4.75;;
41436;SDS011;27178;49.460;10.850;2023-10-09T01:04:24;6.03;;;5.43;;
41436;SDS011;27178;49.460;10.850;2023-10-09T01:06:55;5.20;;;4.35;;
41436;SDS011;27178;49.460;10.850;2023-10-09T01:09:35;9.13;;;5.70;;
41436;SDS011;27178;49.460;10.850;2023-10-09T01:12:04;6.50;;;5.07;;
41436;SDS011;27178;49.460;10.850;2023-10-09T01:14:33;5.95;;;5.32;;
41436;SDS011;27178;49.460;10.850;2023-10-09T01:17:05;6.13;;;5.20;;
41436;SDS011;27178;49.460;10.850;2023-10-09T01:19:36;6.50;;;5.35;;
41436;SDS011;27178;49.460;10.850;2023-10-09T01:22:04;6.70;;;5.68;;
41436;SDS011;27178;49.460;10.850;2023-10-09T01:24:41;7.55;;;5.50;;
41436;SDS011;27178;49.460;10.850;2023-10-09T01:27:10;6.95;;;4.90;;
41436;SDS011;27178;49.460;10.850;2023-10-09T01:29:42;6.57;;;5.25;;
41436;SDS011;27178;49.460;10.850;2023-10-09T01:32:13;8.18;;;5.85;;
41436;SDS011;27178;49.460;10.850;2023-10-09T01:34:46;5.97;;;5.18;;
41436;SDS011;27178;49.460;10.850;2023-10-09T01:37:17;6.03;;;5.43;;
41436;SDS011;27178;49.460;10.850;2023-10-09T01:39:51;6.90;;;5.40;;
41436;SDS011;27178;49.460;10.850;2023-10-09T01:42:25;5.72;;;5.10;;
41436;SDS011;27178;49.460;10.850;2023-10-09T01:45:01;4.90;;;4.40;;
41436;SDS011;27178;49.460;10.850;2023-10-09T01:47:43;6.75;;;5.20;;
41436;SDS011;27178;49.460;10.850;2023-10-09T01:50:18;7.43;;;5.72;;
41436;SDS011;27178;49.460;10.850;2023-10-09T01:52:51;10.00;;;6.00;;
41436;SDS011;27178;49.460;10.850;2023-10-09T01:55:21;6.93;;;5.30;;
41436;SDS011;27178;49.460;10.850;2023-10-09T01:57:57;6.85;;;5.20;;
41436;SDS011;27178;49.460;10.850;2023-10-09T02:00:31;6.95;;;5.28;;
41436;SDS011;27178;49.460;10.850;2023-10-09T02:03:08;9.27;;;5.50;;
41436;SDS011;27178;49.460;10.850;2023-10-09T02:05:49;12.65;;;6.38;;
41436;SDS011;27178;49.460;10.850;2023-10-09T02:08:18;7.75;;;5.15;;
41436;SDS011;27178;49.460;10.850;2023-10-09T02:10:49;8.25;;;6.22;;
41436;SDS011;27178;49.460;10.850;2023-10-09T02:13:22;8.60;;;6.00;;
41436;SDS011;27178;49.460;10.850;2023-10-09T02:15:56;9.25;;;5.32;;
41436;SDS011;27178;49.460;10.850;2023-10-09T02:18:40;7.57;;;5.53;;
41436;SDS011;27178;49.460;10.850;2023-10-09T02:21:19;6.75;;;4.93;;
41436;SDS011;27178;49.460;10.850;2023-10-09T02:24:00;8.35;;;5.35;;
41436;SDS011;27178;49.460;10.850;2023-10-09T02:26:34;6.35;;;5.50;;
41436;SDS011;27178;49.460;10.850;2023-10-09T02:29:28;5.97;;;4.97;;
41436;SDS011;27178;49.460;10.850;2023-10-09T02:32:02;8.10;;;5.55;;
41436;SDS011;27178;49.460;10.850;2023-10-09T02:34:39;6.53;;;5.63;;
41436;SDS011;27178;49.460;10.850;2023-10-09T02:37:09;7.57;;;5.28;;
41436;SDS011;27178;49.460;10.850;2023-10-09T02:39:39;9.35;;;5.00;;
41436;SDS011;27178;49.460;10.850;2023-10-09T02:42:15;6.75;;;5.25;;
41436;SDS011;27178;49.460;10.850;2023-10-09T02:44:55;11.18;;;6.18;;
41436;SDS011;27178;49.460;10.850;2023-10-09T02:47:25;7.97;;;5.55;;
41436;SDS011;27178;49.460;10.850;2023-10-09T02:49:58;7.38;;;4.97;;
41436;SDS011;27178;49.460;10.850;2023-10-09T02:52:33;9.10;;;5.10;;
41436;SDS011;27178;49.460;10.850;2023-10-09T02:55:07;10.48;;;5.38;;
41436;SDS011;27178;49.460;10.850;2023-10-09T02:57:42;5.60;;;4.43;;
41436;SDS011;27178;49.460;10.850;2023-10-09T03:00:12;6.38;;;5.03;;
41436;SDS011;27178;49.460;10.850;2023-10-09T03:02:46;6.72;;;4.63;;
41436;SDS011;27178;49.460;10.850;2023-10-09T03:05:17;7.03;;;4.82;;
41436;SDS011;27178;49.460;10.850;2023-10-09T03:07:47;6.90;;;5.40;;
41436;SDS011;27178;49.460;10.850;2023-10-09T03:10:18;8.80;;;5.10;;
41436;SDS011;27178;49.460;10.850;2023-10-09T03:12:49;7.97;;;5.05;;
41436;SDS011;27178;49.460;10.850;2023-10-09T03:15:20;6.95;;;4.68;;
41436;SDS011;27178;49.460;10.850;2023-10-09T03:17:48;6.57;;;5.07;;
41436;SDS011;27178;49.460;10.850;2023-10-09T03:20:17;8.68;;;5.35;;
41436;SDS011;27178;49.460;10.850;2023-10-09T03:22:45;6.47;;;5.65;;
41436;SDS011;27178;49.460;10.850;2023-10-09T03:25:15;8.45;;;5.53;;
41436;SDS011;27178;49.460;10.850;2023-10-09T03:27:44;8.35;;;5.22;;
41436;SDS011;27178;49.460;10.850;2023-10-09T03:30:15;8.65;;;4.40;;
41436;SDS011;27178;49.460;10.850;2023-10-09T03:32:50;8.57;;;5.65;;
41436;SDS011;27178;49.460;10.850;2023-10-09T03:35:19;8.18;;;5.07;;
41436;SDS011;27178;49.460;10.850;2023-10-09T03:37:53;9.38;;;5.13;;
41436;SDS011;27178;49.460;10.850;2023-10-09T03:40:26;10.70;;;4.78;;
41436;SDS011;27178;49.460;10.850;2023-10-09T03:42:54;10.40;;;5.28;;
41436;SDS011;27178;49.460;10.850;2023-10-09T03:45:24;8.05;;;4.82;;
41436;SDS011;27178;49.460;10.850;2023-10-09T03:47:54;5.75;;;4.53;;
41436;SDS011;27178;49.460;10.850;2023-10-09T03:50:29;8.25;;;5.28;;
41436;SDS011;27178;49.460;10.850;2023-10-09T03:53:03;6.57;;;4.38;;
41436;SDS011;27178;49.460;10.850;2023-10-09T03:55:34;7.13;;;4.43;;
41436;SDS011;27178;49.460;10.850;2023-10-09T03:58:04;11.40;;;4.75;;
41436;SDS011;27178;49.460;10.850;2023-10-09T04:00:35;6.60;;;4.43;;
41436;SDS011;27178;49.460;10.850;2023-10-09T04:03:13;9.25;;;4.75;;
41436;SDS011;27178;49.460;10.850;2023-10-09T04:05:42;10.60;;;4.50;;
41436;SDS011;27178;49.460;10.850;2023-10-09T04:08:12;9.75;;;4.47;;
41436;SDS011;27178;49.460;10.850;2023-10-09T04:10:46;9.10;;;4.50;;
41436;SDS011;27178;49.460;10.850;2023-10-09T04:13:23;6.60;;;4.63;;
41436;SDS011;27178;49.460;10.850;2023-10-09T04:16:02;9.10;;;4.63;;
41436;SDS011;27178;49.460;10.850;2023-10-09T04:18:39;7.32;;;4.40;;
41436;SDS011;27178;49.460;10.850;2023-10-09T04:21:12;4.38;;;3.97;;
41436;SDS011;27178;49.460;10.850;2023-10-09T04:23:46;7.97;;;4.82;;
41436;SDS011;27178;49.460;10.850;2023-10-09T04:26:32;7.45;;;6.28;;
41436;SDS011;27178;49.460;10.850;2023-10-09T04:29:02;7.72;;;6.20;;
41436;SDS011;27178;49.460;10.850;2023-10-09T04:31:33;7.35;;;5.95;;
41436;SDS011;27178;49.460;10.850;2023-10-09T04:37:51;6.35;;;5.60;;
41436;SDS011;27178;49.460;10.850;2023-10-09T04:40:30;11.10;;;5.65;;
41436;SDS011;27178;49.460;10.850;2023-10-09T04:43:18;6.32;;;5.43;;
41436;SDS011;27178;49.460;10.850;2023-10-09T04:45:49;6.25;;;5.15;;
41436;SDS011;27178;49.460;10.850;2023-10-09T04:48:40;5.82;;;5.20;;
41436;SDS011;27178;49.460;10.850;2023-10-09T04:51:14;5.00;;;4.50;;
41436;SDS011;27178;49.460;10.850;2023-10-09T04:53:48;6.97;;;4.97;;
41436;SDS011;27178;49.460;10.850;2023-10-09T04:56:27;7.88;;;4.43;;
41436;SDS011;27178;49.460;10.850;2023-10-09T04:58:59;8.20;;;4.40;;
41436;SDS011;27178;49.460;10.850;2023-10-09T05:01:33;5.40;;;4.57;;
41436;SDS011;27178;49.460;10.850;2023-10-09T05:04:12;5.38;;;4.30;;
41436;SDS011;27178;49.460;10.850;2023-10-09T05:07:01;9.73;;;4.90;;
41436;SDS011;27178;49.460;10.850;2023-10-09T05:09:49;8.68;;;4.75;;
41436;SDS011;27178;49.460;10.850;2023-10-09T05:12:31;5.80;;;3.92;;
41436;SDS011;27178;49.460;10.850;2023-10-09T05:14:59;8.18;;;4.68;;
41436;SDS011;27178;49.460;10.850;2023-10-09T05:17:35;11.23;;;4.03;;
41436;SDS011;27178;49.460;10.850;2023-10-09T05:20:07;7.43;;;4.70;;
41436;SDS011;27178;49.460;10.850;2023-10-09T05:22:53;6.90;;;4.53;;
41436;SDS011;27178;49.460;10.850;2023-10-09T05:25:25;8.25;;;4.13;;
41436;SDS011;27178;49.460;10.850;2023-10-09T05:28:12;6.13;;;4.18;;
41436;SDS011;27178;49.460;10.850;2023-10-09T05:31:01;6.88;;;4.70;;
41436;SDS011;27178;49.460;10.850;2023-10-09T05:33:36;11.75;;;7.03;;
41436;SDS011;27178;49.460;10.850;2023-10-09T05:36:06;17.33;;;14.30;;
41436;SDS011;27178;49.460;10.850;2023-10-09T05:39:02;22.92;;;18.02;;
41436;SDS011;27178;49.460;10.850;2023-10-09T05:41:48;20.13;;;16.40;;
41436;SDS011;27178;49.460;10.850;2023-10-09T05:44:26;18.27;;;15.30;;
41436;SDS011;27178;49.460;10.850;2023-10-09T05:47:12;15.35;;;12.48;;
41436;SDS011;27178;49.460;10.850;2023-10-09T05:49:59;11.52;;;8.95;;
41436;SDS011;27178;49.460;10.850;2023-10-09T05:52:45;11.48;;;9.13;;
41436;SDS011;27178;49.460;10.850;2023-10-09T05:55:34;11.63;;;9.18;;
41436;SDS011;27178;49.460;10.850;2023-10-09T05:58:19;12.13;;;8.85;;
41436;SDS011;27178;49.460;10.850;2023-10-09T06:01:05;9.82;;;7.45;;
41436;SDS011;27178;49.460;10.850;2023-10-09T06:03:54;9.82;;;6.55;;
41436;SDS011;27178;49.460;10.850;2023-10-09T06:06:22;10.13;;;6.18;;
41436;SDS011;27178;49.460;10.850;2023-10-09T06:09:11;7.75;;;5.88;;
41436;SDS011;27178;49.460;10.850;2023-10-09T06:11:57;10.77;;;6.03;;
41436;SDS011;27178;49.460;10.850;2023-10-09T06:14:40;8.02;;;5.43;;
41436;SDS011;27178;49.460;10.850;2023-10-09T06:17:24;8.80;;;5.47;;
41436;SDS011;27178;49.460;10.850;2023-10-09T06:19:57;7.88;;;5.47;;
41436;SDS011;27178;49.460;10.850;2023-10-09T06:22:52;6.78;;;5.22;;
41436;SDS011;27178;49.460;10.850;2023-10-09T06:25:26;8.57;;;4.70;;
41436;SDS011;27178;49.460;10.850;2023-10-09T06:27:59;6.93;;;4.15;;
41436;SDS011;27178;49.460;10.850;2023-10-09T06:30:28;6.13;;;4.53;;
41436;SDS011;27178;49.460;10.850;2023-10-09T06:33:01;8.82;;;4.35;;
41436;SDS011;27178;49.460;10.850;2023-10-09T06:35:47;8.27;;;4.75;;
41436;SDS011;27178;49.460;10.850;2023-10-09T06:38:20;9.40;;;4.70;;
41436;SDS011;27178;49.460;10.850;2023-10-09T06:41:02;5.15;;;3.67;;
41436;SDS011;27178;49.460;10.850;2023-10-09T06:43:48;5.13;;;3.78;;
41436;SDS011;27178;49.460;10.850;2023-10-09T06:46:20;8.80;;;4.10;;
41436;SDS011;27178;49.460;10.850;2023-10-09T06:49:06;8.52;;;4.15;;
41436;SDS011;27178;49.460;10.850;2023-10-09T06:51:55;7.85;;;3.85;;
41436;SDS011;27178;49.460;10.850;2023-10-09T06:54:40;10.05;;;3.75;;
41436;SDS011;27178;49.460;10.850;2023-10-09T06:57:18;8.45;;;3.88;;
41436;SDS011;27178;49.460;10.850;2023-10-09T07:00:15;9.00;;;3.63;;
41436;SDS011;27178;49.460;10.850;2023-10-09T07:03:01;9.40;;;4.30;;
41436;SDS011;27178;49.460;10.850;2023-10-09T07:05:38;8.52;;;4.63;;
41436;SDS011;27178;49.460;10.850;2023-10-09T07:08:27;5.57;;;3.72;;
41436;SDS011;27178;49.460;10.850;2023-10-09T07:11:03;5.32;;;3.20;;
41436;SDS011;27178;49.460;10.850;2023-10-09T07:13:48;8.85;;;3.58;;
41436;SDS011;27178;49.460;10.850;2023-10-09T07:16:22;8.15;;;3.88;;
41436;SDS011;27178;49.460;10.850;2023-10-09T07:18:55;5.65;;;3.30;;
41436;SDS011;27178;49.460;10.850;2023-10-09T07:21:36;5.82;;;3.58;;
41436;SDS011;27178;49.460;10.850;2023-10-09T07:24:05;7.40;;;3.58;;
41436;SDS011;27178;49.460;10.850;2023-10-09T07:26:44;8.18;;;4.18;;
41436;SDS011;27178;49.460;10.850;2023-10-09T07:29:21;5.57;;;3.60;;
41436;SDS011;27178;49.460;10.850;2023-10-09T07:31:51;10.43;;;4.20;;
41436;SDS011;27178;49.460;10.850;2023-10-09T07:34:24;7.25;;;3.75;;
41436;SDS011;27178;49.460;10.850;2023-10-09T07:37:10;7.28;;;4.35;;
41436;SDS011;27178;49.460;10.850;2023-10-09T07:39:45;10.75;;;4.43;;
41436;SDS011;27178;49.460;10.850;2023-10-09T07:42:24;8.35;;;4.28;;
41436;SDS011;27178;49.460;10.850;2023-10-09T07:45:11;11.75;;;4.78;;
41436;SDS011;27178;49.460;10.850;2023-10-09T07:48:00;7.70;;;3.90;;
41436;SDS011;27178;49.460;10.850;2023-10-09T07:50:37;8.18;;;3.45;;
41436;SDS011;27178;49.460;10.850;2023-10-09T07:53:08;8.80;;;3.78;;
41436;SDS011;27178;49.460;10.850;2023-10-09T07:55:53;5.50;;;3.42;;
41436;SDS011;27178;49.460;10.850;2023-10-09T07:58:25;8.25;;;3.85;;
41436;SDS011;27178;49.460;10.850;2023-10-09T08:00:55;6.80;;;3.65;;
41436;SDS011;27178;49.460;10.850;2023-10-09T08:03:41;6.13;;;3.75;;
41436;SDS011;27178;49.460;10.850;2023-10-09T08:06:15;7.07;;;3.92;;
41436;SDS011;27178;49.460;10.850;2023-10-09T08:09:33;13.73;;;3.60;;
41436;SDS011;27178;49.460;10.850;2023-10-09T08:12:14;6.85;;;3.47;;
41436;SDS011;27178;49.460;10.850;2023-10-09T08:14:57;5.25;;;3.50;;
41436;SDS011;27178;49.460;10.850;2023-10-09T08:17:41;5.05;;;3.30;;
41436;SDS011;27178;49.460;10.850;2023-10-09T08:20:15;7.38;;;3.55;;
41436;SDS011;27178;49.460;10.850;2023-10-09T08:22:44;6.65;;;3.33;;
41436;SDS011;27178;49.460;10.850;2023-10-09T08:25:17;3.95;;;2.88;;
41436;SDS011;27178;49.460;10.850;2023-10-09T08:27:57;6.35;;;3.53;;
41436;SDS011;27178;49.460;10.850;2023-10-09T08:30:45;9.73;;;4.35;;
41436;SDS011;27178;49.460;10.850;2023-10-09T08:33:31;7.15;;;3.45;;
41436;SDS011;27178;49.460;10.850;2023-10-09T08:36:10;6.43;;;4.05;;
41436;SDS011;27178;49.460;10.850;2023-10-09T08:38:41;4.97;;;3.13;;
41436;SDS011;27178;49.460;10.850;2023-10-09T08:41:12;5.78;;;3.15;;
41436;SDS011;27178;49.460;10.850;2023-10-09T08:43:46;7.03;;;3.63;;
41436;SDS011;27178;49.460;10.850;2023-10-09T08:46:21;4.95;;;3.53;;
41436;SDS011;27178;49.460;10.850;2023-10-09T08:48:56;5.30;;;3.58;;
41436;SDS011;27178;49.460;10.850;2023-10-09T08:51:26;4.97;;;3.17;;
41436;SDS011;27178;49.460;10.850;2023-10-09T08:53:56;7.95;;;3.67;;
41436;SDS011;27178;49.460;10.850;2023-10-09T08:56:25;5.75;;;3.38;;
41436;SDS011;27178;49.460;10.850;2023-10-09T08:58:55;5.22;;;3.30;;
41436;SDS011;27178;49.460;10.850;2023-10-09T09:01:24;9.95;;;3.33;;
41436;SDS011;27178;49.460;10.850;2023-10-09T09:03:56;9.63;;;3.67;;
41436;SDS011;27178;49.460;10.850;2023-10-09T09:06:25;5.13;;;3.08;;
41436;SDS011;27178;49.460;10.850;2023-10-09T09:08:54;5.53;;;3.30;;
41436;SDS011;27178;49.460;10.850;2023-10-09T09:11:41;6.15;;;3.80;;
41436;SDS011;27178;49.460;10.850;2023-10-09T09:14:15;6.35;;;3.30;;
41436;SDS011;27178;49.460;10.850;2023-10-09T09:16:48;6.60;;;3.45;;
41436;SDS011;27178;49.460;10.850;2023-10-09T09:19:20;7.43;;;3.60;;
41436;SDS011;27178;49.460;10.850;2023-10-09T09:22:04;7.07;;;3.47;;
41436;SDS011;27178;49.460;10.850;2023-10-09T09:24:40;8.73;;;4.10;;
41436;SDS011;27178;49.460;10.850;2023-10-09T09:30:22;5.95;;;3.25;;
41436;SDS011;27178;49.460;10.850;2023-10-09T09:32:52;5.97;;;3.35;;
41436;SDS011;27178;49.460;10.850;2023-10-09T09:35:35;6.18;;;3.22;;
41436;SDS011;27178;49.460;10.850;2023-10-09T09:38:04;7.43;;;3.33;;
41436;SDS011;27178;49.460;10.850;2023-10-09T09:40:34;6.05;;;3.40;;
41436;SDS011;27178;49.460;10.850;2023-10-09T09:43:08;10.20;;;3.92;;
41436;SDS011;27178;49.460;10.850;2023-10-09T09:45:48;5.75;;;3.17;;
41436;SDS011;27178;49.460;10.850;2023-10-09T09:48:17;6.82;;;3.20;;
41436;SDS011;27178;49.460;10.850;2023-10-09T09:50:47;7.93;;;3.30;;
41436;SDS011;27178;49.460;10.850;2023-10-09T09:53:20;6.47;;;3.30;;
41436;SDS011;27178;49.460;10.850;2023-10-09T09:55:50;7.80;;;3.55;;
41436;SDS011;27178;49.460;10.850;2023-10-09T09:58:25;6.93;;;3.30;;
41436;SDS011;27178;49.460;10.850;2023-10-09T10:01:00;9.25;;;3.65;;
41436;SDS011;27178;49.460;10.850;2023-10-09T10:03:36;6.13;;;2.88;;
41436;SDS011;27178;49.460;10.850;2023-10-09T10:06:12;7.47;;;3.22;;
41436;SDS011;27178;49.460;10.850;2023-10-09T10:08:47;7.45;;;3.90;;
41436;SDS011;27178;49.460;10.850;2023-10-09T10:14:12;5.60;;;3.60;;
41436;SDS011;27178;49.460;10.850;2023-10-09T10:17:01;12.10;;;4.22;;
41436;SDS011;27178;49.460;10.850;2023-10-09T10:20:01;5.20;;;3.08;;
41436;SDS011;27178;49.460;10.850;2023-10-09T10:23:16;10.00;;;3.50;;
41436;SDS011;27178;49.460;10.850;2023-10-09T10:25:46;5.22;;;3.63;;
41436;SDS011;27178;49.460;10.850;2023-10-09T10:28:26;7.60;;;3.10;;
41436;SDS011;27178;49.460;10.850;2023-10-09T10:31:05;7.80;;;3.85;;
41436;SDS011;27178;49.460;10.850;2023-10-09T10:36:37;9.25;;;3.58;;
41436;SDS011;27178;49.460;10.850;2023-10-09T10:39:10;9.20;;;3.25;;
41436;SDS011;27178;49.460;10.850;2023-10-09T10:41:54;8.82;;;3.95;;
41436;SDS011;27178;49.460;10.850;2023-10-09T10:44:25;8.18;;;3.28;;
41436;SDS011;27178;49.460;10.850;2023-10-09T10:47:05;6.50;;;3.55;;
41436;SDS011;27178;49.460;10.850;2023-10-09T10:49:49;6.72;;;3.88;;
41436;SDS011;27178;49.460;10.850;2023-10-09T10:52:21;6.65;;;3.05;;
41436;SDS011;27178;49.460;10.850;2023-10-09T10:55:10;6.38;;;3.88;;
41436;SDS011;27178;49.460;10.850;2023-10-09T10:58:15;6.20;;;3.72;;
41436;SDS011;27178;49.460;10.850;2023-10-09T11:00:53;6.32;;;3.50;;
41436;SDS011;27178;49.460;10.850;2023-10-09T11:03:38;7.15;;;3.67;;
41436;SDS011;27178;49.460;10.850;2023-10-09T11:06:24;6.43;;;3.33;;
41436;SDS011;27178;49.460;10.850;2023-10-09T11:09:02;9.40;;;3.45;;
41436;SDS011;27178;49.460;10.850;2023-10-09T11:11:50;7.70;;;3.65;;
41436;SDS011;27178;49.460;10.850;2023-10-09T11:14:22;5.95;;;3.40;;
41436;SDS011;27178;49.460;10.850;2023-10-09T11:16:51;7.53;;;3.65;;
41436;SDS011;27178;49.460;10.850;2023-10-09T11:19:25;6.95;;;3.45;;
41436;SDS011;27178;49.460;10.850;2023-10-09T11:21:58;12.07;;;4.38;;
41436;SDS011;27178;49.460;10.850;2023-10-09T11:24:46;7.40;;;3.40;;
41436;SDS011;27178;49.460;10.850;2023-10-09T11:27:39;7.03;;;3.22;;
41436;SDS011;27178;49.460;10.850;2023-10-09T11:30:17;9.40;;;3.97;;
41436;SDS011;27178;49.460;10.850;2023-10-09T11:33:03;10.68;;;3.60;;
41436;SDS011;27178;49.460;10.850;2023-10-09T11:35:31;8.27;;;4.28;;
41436;SDS011;27178;49.460;10.850;2023-10-09T11:38:01;16.13;;;4.53;;
41436;SDS011;27178;49.460;10.850;2023-10-09T11:40:48;11.25;;;3.95;;
41436;SDS011;27178;49.460;10.850;2023-10-09T11:43:47;10.60;;;4.30;;
41436;SDS011;27178;49.460;10.850;2023-10-09T11:46:19;7.35;;;3.47;;
41436;SDS011;27178;49.460;10.850;2023-10-09T11:49:09;8.13;;;3.75;;
41436;SDS011;27178;49.460;10.850;2023-10-09T11:52:11;8.23;;;3.83;;
41436;SDS011;27178;49.460;10.850;2023-10-09T11:54:56;11.82;;;4.25;;
41436;SDS011;27178;49.460;10.850;2023-10-09T11:57:26;9.18;;;3.42;;
41436;SDS011;27178;49.460;10.850;2023-10-09T12:00:04;10.20;;;3.63;;
41436;SDS011;27178;49.460;10.850;2023-10-09T12:02:51;5.57;;;3.30;;
41436;SDS011;27178;49.460;10.850;2023-10-09T12:05:20;15.23;;;4.47;;
41436;SDS011;27178;49.460;10.850;2023-10-09T12:07:49;14.50;;;4.18;;
41436;SDS011;27178;49.460;10.850;2023-10-09T12:10:21;11.35;;;3.95;;
41436;SDS011;27178;49.460;10.850;2023-10-09T12:12:52;8.80;;;3.83;;
41436;SDS011;27178;49.460;10.850;2023-10-09T12:15:26;7.05;;;3.05;;
41436;SDS011;27178;49.460;10.850;2023-10-09T12:18:04;9.25;;;3.75;;
41436;SDS011;27178;49.460;10.850;2023-10-09T12:20:38;5.95;;;3.83;;
41436;SDS011;27178;49.460;10.850;2023-10-09T12:23:06;5.82;;;3.47;;
41436;SDS011;27178;49.460;10.850;2023-10-09T12:25:40;10.82;;;3.78;;
41436;SDS011;27178;49.460;10.850;2023-10-09T12:28:11;6.65;;;3.25;;
41436;SDS011;27178;49.460;10.850;2023-10-09T12:30:42;8.73;;;3.88;;
41436;SDS011;27178;49.460;10.850;2023-10-09T12:33:14;8.23;;;4.18;;
41436;SDS011;27178;49.460;10.850;2023-10-09T12:35:42;7.38;;;3.50;;
41436;SDS011;27178;49.460;10.850;2023-10-09T12:38:12;8.00;;;3.55;;
41436;SDS011;27178;49.460;10.850;2023-10-09T12:40:45;8.23;;;4.55;;
41436;SDS011;27178;49.460;10.850;2023-10-09T12:43:18;8.35;;;3.10;;
41436;SDS011;27178;49.460;10.850;2023-10-09T12:45:50;9.43;;;3.53;;
41436;SDS011;27178;49.460;10.850;2023-10-09T12:48:23;7.82;;;3.53;;
41436;SDS011;27178;49.460;10.850;2023-10-09T12:50:52;6.78;;;3.95;;
41436;SDS011;27178;49.460;10.850;2023-10-09T12:53:20;11.68;;;3.97;;
41436;SDS011;27178;49.460;10.850;2023-10-09T12:55:49;10.85;;;3.53;;
41436;SDS011;27178;49.460;10.850;2023-10-09T12:58:23;7.75;;;3.22;;
41436;SDS011;27178;49.460;10.850;2023-10-09T13:00:54;6.72;;;3.03;;
41436;SDS011;27178;49.460;10.850;2023-10-09T13:03:23;8.18;;;3.85;;
41436;SDS011;27178;49.460;10.850;2023-10-09T13:05:55;5.05;;;3.20;;
41436;SDS011;27178;49.460;10.850;2023-10-09T13:08:24;11.23;;;3.83;;
41436;SDS011;27178;49.460;10.850;2023-10-09T13:11:01;6.80;;;3.42;;
41436;SDS011;27178;49.460;10.850;2023-10-09T13:13:38;6.28;;;3.30;;
41436;SDS011;27178;49.460;10.850;2023-10-09T13:16:10;9.32;;;3.75;;
41436;SDS011;27178;49.460;10.850;2023-10-09T13:18:47;8.20;;;3.75;;
41436;SDS011;27178;49.460;10.850;2023-10-09T13:21:18;8.45;;;3.20;;
41436;SDS011;27178;49.460;10.850;2023-10-09T13:23:47;10.32;;;3.72;;
41436;SDS011;27178;49.460;10.850;2023-10-09T13:26:17;5.35;;;3.50;;
41436;SDS011;27178;49.460;10.850;2023-10-09T13:28:59;11.40;;;4.20;;
41436;SDS011;27178;49.460;10.850;2023-10-09T13:31:30;9.93;;;3.42;;
41436;SDS011;27178;49.460;10.850;2023-10-09T13:34:01;8.38;;;3.70;;
41436;SDS011;27178;49.460;10.850;2023-10-09T13:36:33;6.25;;;3.38;;
41436;SDS011;27178;49.460;10.850;2023-10-09T13:39:02;8.63;;;4.13;;
41436;SDS011;27178;49.460;10.850;2023-10-09T13:41:46;6.60;;;3.45;;
41436;SDS011;27178;49.460;10.850;2023-10-09T13:44:15;6.05;;;3.35;;
41436;SDS011;27178;49.460;10.850;2023-10-09T13:46:45;8.80;;;4.03;;
41436;SDS011;27178;49.460;10.850;2023-10-09T13:49:17;6.10;;;3.97;;
41436;SDS011;27178;49.460;10.850;2023-10-09T13:51:49;7.15;;;3.72;;
41436;SDS011;27178;49.460;10.850;2023-10-09T13:54:17;9.88;;;3.33;;
41436;SDS011;27178;49.460;10.850;2023-10-09T13:56:54;5.25;;;3.47;;
41436;SDS011;27178;49.460;10.850;2023-10-09T13:59:23;6.28;;;3.60;;
41436;SDS011;27178;49.460;10.850;2023-10-09T14:01:54;5.22;;;3.30;;
41436;SDS011;27178;49.460;10.850;2023-10-09T14:04:23;10.07;;;4.03;;
41436;SDS011;27178;49.460;10.850;2023-10-09T14:06:52;10.23;;;3.78;;
41436;SDS011;27178;49.460;10.850;2023-10-09T14:09:23;8.35;;;3.63;;
41436;SDS011;27178;49.460;10.850;2023-10-09T14:11:59;9.93;;;3.80;;
41436;SDS011;27178;49.460;10.850;2023-10-09T14:14:34;7.35;;;3.63;;
41436;SDS011;27178;49.460;10.850;2023-10-09T14:17:06;9.18;;;3.80;;
41436;SDS011;27178;49.460;10.850;2023-10-09T14:19:39;6.32;;;3.47;;
41436;SDS011;27178;49.460;10.850;2023-10-09T14:22:14;5.55;;;3.35;;
41436;SDS011;27178;49.460;10.850;2023-10-09T14:24:43;6.20;;;3.67;;
41436;SDS011;27178;49.460;10.850;2023-10-09T14:27:12;4.28;;;3.28;;
41436;SDS011;27178;49.460;10.850;2023-10-09T14:29:44;8.82;;;4.25;;
41436;SDS011;27178;49.460;10.850;2023-10-09T14:32:14;4.72;;;3.60;;
41436;SDS011;27178;49.460;10.850;2023-10-09T14:34:43;8.75;;;3.88;;
41436;SDS011;27178;49.460;10.850;2023-10-09T14:37:17;6.90;;;3.75;;
41436;SDS011;27178;49.460;10.850;2023-10-09T14:39:46;5.40;;;3.50;;
41436;SDS011;27178;49.460;10.850;2023-10-09T14:42:15;10.15;;;3.88;;
41436;SDS011;27178;49.460;10.850;2023-10-09T14:44:44;5.07;;;3.05;;
41436;SDS011;27178;49.460;10.850;2023-10-09T14:47:14;7.20;;;3.80;;
41436;SDS011;27178;49.460;10.850;2023-10-09T14:49:43;7.28;;;3.50;;
41436;SDS011;27178;49.460;10.850;2023-10-09T14:52:14;3.65;;;2.97;;
41436;SDS011;27178;49.460;10.850;2023-10-09T14:54:45;8.25;;;3.42;;
41436;SDS011;27178;49.460;10.850;2023-10-09T14:57:17;6.75;;;3.80;;
41436;SDS011;27178;49.460;10.850;2023-10-09T14:59:45;5.85;;;3.47;;
41436;SDS011;27178;49.460;10.850;2023-10-09T15:02:17;5.20;;;3.58;;
41436;SDS011;27178;49.460;10.850;2023-10-09T15:04:46;6.70;;;3.85;;
41436;SDS011;27178;49.460;10.850;2023-10-09T15:07:14;4.97;;;3.65;;
41436;SDS011;27178;49.460;10.850;2023-10-09T15:10:04;5.30;;;3.25;;
41436;SDS011;27178;49.460;10.850;2023-10-09T15:12:35;6.50;;;4.10;;
41436;SDS011;27178;49.460;10.850;2023-10-09T15:15:09;6.97;;;4.25;;
41436;SDS011;27178;49.460;10.850;2023-10-09T15:17:42;11.63;;;4.40;;
41436;SDS011;27178;49.460;10.850;2023-10-09T15:20:12;5.95;;;3.53;;
41436;SDS011;27178;49.460;10.850;2023-10-09T15:22:41;11.43;;;5.25;;
41436;SDS011;27178;49.460;10.850;2023-10-09T15:25:10;9.18;;;4.25;;
41436;SDS011;27178;49.460;10.850;2023-10-09T15:27:41;6.63;;;4.18;;
41436;SDS011;27178;49.460;10.850;2023-10-09T15:30:10;4.43;;;3.45;;
41436;SDS011;27178;49.460;10.850;2023-10-09T15:32:42;6.60;;;4.00;;
41436;SDS011;27178;49.460;10.850;2023-10-09T15:35:12;7.50;;;3.65;;